sensor_id;sensor_type;location;lat;lon;timestamp;P1;durP1;ratioP1;P2;durP2;ratioP2
11090;SDS011;5599;52.210;21.046;2024-03-02T00:01:55;38.72;;;33.35;;
11090;SDS011;5599;52.210;21.046;2024-03-02T00:04:24;37.03;;;30.57;;
11090;SDS011;5599;52.210;21.046;2024-03-02T00:06:53;40.03;;;29.93;;
11090;SDS011;5599;52.210;21.046;2024-03-02T00:09:22;36.80;;;28.60;;
11090;SDS011;5599;52.210;21.046;2024-03-02T00:11:52;34.60;;;27.60;;
11090;SDS011;5599;52.210;21.046;2024-03-02T00:14:20;33.97;;;27.80;;
11090;SDS011;5599;52.210;21.046;2024-03-02T00:17:04;34.27;;;27.93;;
11090;SDS011;5599;52.210;21.046;2024-03-02T00:19:35;33.33;;;27.27;;
11090;SDS011;5599;52.210;21.046;2024-03-02T00:22:07;37.87;;;28.00;;
11090;SDS011;5599;52.210;21.046;2024-03-02T00:24:36;35.47;;;26.57;;
11090;SDS011;5599;52.210;21.046;2024-03-02T00:27:05;36.13;;;31.63;;
11090;SDS011;5599;52.210;21.046;2024-03-02T00:29:38;33.03;;;26.97;;
11090;SDS011;5599;52.210;21.046;2024-03-02T00:32:12;34.40;;;28.57;;
11090;SDS011;5599;52.210;21.046;2024-03-02T00:34:43;35.60;;;28.20;;
11090;SDS011;5599;52.210;21.046;2024-03-02T00:37:12;34.87;;;27.30;;
11090;SDS011;5599;52.210;21.046;2024-03-02T00:39:42;35.10;;;26.60;;
11090;SDS011;5599;52.210;21.046;2024-03-02T00:42:10;34.50;;;28.23;;
11090;SDS011;5599;52.210;21.046;2024-03-02T00:44:40;35.80;;;27.00;;
11090;SDS011;5599;52.210;21.046;2024-03-02T00:47:09;32.40;;;26.80;;
11090;SDS011;5599;52.210;21.046;2024-03-02T00:49:39;35.03;;;28.17;;
11090;SDS011;5599;52.210;21.046;2024-03-02T00:52:08;37.27;;;28.40;;
11090;SDS011;5599;52.210;21.046;2024-03-02T00:54:37;35.73;;;26.70;;
11090;SDS011;5599;52.210;21.046;2024-03-02T00:57:06;36.77;;;27.83;;
11090;SDS011;5599;52.210;21.046;2024-03-02T00:59:39;33.90;;;27.13;;
11090;SDS011;5599;52.210;21.046;2024-03-02T01:02:08;37.37;;;28.03;;
11090;SDS011;5599;52.210;21.046;2024-03-02T01:04:38;33.83;;;27.40;;
11090;SDS011;5599;52.210;21.046;2024-03-02T01:07:07;34.17;;;27.27;;
11090;SDS011;5599;52.210;21.046;2024-03-02T01:09:36;36.10;;;28.03;;
11090;SDS011;5599;52.210;21.046;2024-03-02T01:12:06;31.07;;;26.30;;
11090;SDS011;5599;52.210;21.046;2024-03-02T01:14:35;33.87;;;27.33;;
11090;SDS011;5599;52.210;21.046;2024-03-02T01:17:04;35.43;;;27.40;;
11090;SDS011;5599;52.210;21.046;2024-03-02T01:19:33;34.17;;;25.97;;
11090;SDS011;5599;52.210;21.046;2024-03-02T01:22:03;32.20;;;25.77;;
11090;SDS011;5599;52.210;21.046;2024-03-02T01:24:32;33.07;;;26.60;;
11090;SDS011;5599;52.210;21.046;2024-03-02T01:27:01;35.67;;;27.67;;
11090;SDS011;5599;52.210;21.046;2024-03-02T01:29:30;35.70;;;27.47;;
11090;SDS011;5599;52.210;21.046;2024-03-02T01:31:59;35.43;;;27.13;;
11090;SDS011;5599;52.210;21.046;2024-03-02T01:34:28;32.27;;;26.63;;
11090;SDS011;5599;52.210;21.046;2024-03-02T01:36:56;34.70;;;27.50;;
11090;SDS011;5599;52.210;21.046;2024-03-02T01:39:27;31.80;;;26.97;;
11090;SDS011;5599;52.210;21.046;2024-03-02T01:41:55;34.20;;;27.17;;
11090;SDS011;5599;52.210;21.046;2024-03-02T01:44:24;36.40;;;27.20;;
11090;SDS011;5599;52.210;21.046;2024-03-02T01:46:53;33.40;;;27.40;;
11090;SDS011;5599;52.210;21.046;2024-03-02T01:49:22;34.10;;;27.27;;
11090;SDS011;5599;52.210;21.046;2024-03-02T01:51:51;35.07;;;27.97;;
11090;SDS011;5599;52.210;21.046;2024-03-02T01:54:20;32.73;;;27.43;;
11090;SDS011;5599;52.210;21.046;2024-03-02T01:56:51;32.53;;;26.70;;
11090;SDS011;5599;52.210;21.046;2024-03-02T01:59:20;30.37;;;26.60;;
11090;SDS011;5599;52.210;21.046;2024-03-02T02:01:49;31.70;;;25.87;;
11090;SDS011;5599;52.210;21.046;2024-03-02T02:04:18;33.60;;;26.83;;
11090;SDS011;5599;52.210;21.046;2024-03-02T02:06:48;30.50;;;24.60;;
11090;SDS011;5599;52.210;21.046;2024-03-02T02:09:17;30.37;;;27.00;;
11090;SDS011;5599;52.210;21.046;2024-03-02T02:11:46;33.23;;;26.33;;
11090;SDS011;5599;52.210;21.046;2024-03-02T02:14:16;31.37;;;25.17;;
11090;SDS011;5599;52.210;21.046;2024-03-02T02:16:45;31.87;;;25.13;;
11090;SDS011;5599;52.210;21.046;2024-03-02T02:19:14;31.00;;;25.40;;
11090;SDS011;5599;52.210;21.046;2024-03-02T02:21:44;33.77;;;25.63;;
11090;SDS011;5599;52.210;21.046;2024-03-02T02:24:13;31.63;;;25.40;;
11090;SDS011;5599;52.210;21.046;2024-03-02T02:26:42;30.30;;;25.77;;
11090;SDS011;5599;52.210;21.046;2024-03-02T02:29:11;33.30;;;25.67;;
11090;SDS011;5599;52.210;21.046;2024-03-02T02:31:40;29.60;;;24.97;;
11090;SDS011;5599;52.210;21.046;2024-03-02T02:34:09;31.13;;;24.87;;
11090;SDS011;5599;52.210;21.046;2024-03-02T02:36:38;33.27;;;24.33;;
11090;SDS011;5599;52.210;21.046;2024-03-02T02:39:09;32.90;;;25.43;;
11090;SDS011;5599;52.210;21.046;2024-03-02T02:41:41;30.93;;;26.07;;
11090;SDS011;5599;52.210;21.046;2024-03-02T02:44:10;27.63;;;24.50;;
11090;SDS011;5599;52.210;21.046;2024-03-02T02:46:40;30.97;;;24.93;;
11090;SDS011;5599;52.210;21.046;2024-03-02T02:49:08;37.80;;;25.20;;
11090;SDS011;5599;52.210;21.046;2024-03-02T02:51:37;27.93;;;24.37;;
11090;SDS011;5599;52.210;21.046;2024-03-02T02:54:06;31.37;;;25.07;;
11090;SDS011;5599;52.210;21.046;2024-03-02T02:56:36;28.07;;;23.90;;
11090;SDS011;5599;52.210;21.046;2024-03-02T02:59:05;28.20;;;23.77;;
11090;SDS011;5599;52.210;21.046;2024-03-02T03:01:34;30.20;;;24.37;;
11090;SDS011;5599;52.210;21.046;2024-03-02T03:04:03;28.53;;;24.53;;
11090;SDS011;5599;52.210;21.046;2024-03-02T03:06:32;31.13;;;25.00;;
11090;SDS011;5599;52.210;21.046;2024-03-02T03:09:00;29.83;;;23.30;;
11090;SDS011;5599;52.210;21.046;2024-03-02T03:11:30;30.50;;;25.37;;
11090;SDS011;5599;52.210;21.046;2024-03-02T03:14:00;31.63;;;25.10;;
11090;SDS011;5599;52.210;21.046;2024-03-02T03:16:29;28.63;;;23.37;;
11090;SDS011;5599;52.210;21.046;2024-03-02T03:18:58;28.43;;;23.60;;
11090;SDS011;5599;52.210;21.046;2024-03-02T03:21:27;30.53;;;25.70;;
11090;SDS011;5599;52.210;21.046;2024-03-02T03:23:56;29.60;;;24.13;;
11090;SDS011;5599;52.210;21.046;2024-03-02T03:26:25;26.17;;;23.03;;
11090;SDS011;5599;52.210;21.046;2024-03-02T03:28:53;31.10;;;24.97;;
11090;SDS011;5599;52.210;21.046;2024-03-02T03:31:24;30.93;;;25.27;;
11090;SDS011;5599;52.210;21.046;2024-03-02T03:33:52;31.40;;;23.50;;
11090;SDS011;5599;52.210;21.046;2024-03-02T03:36:22;28.07;;;23.23;;
11090;SDS011;5599;52.210;21.046;2024-03-02T03:38:51;29.00;;;23.70;;
11090;SDS011;5599;52.210;21.046;2024-03-02T03:41:19;29.17;;;24.07;;
11090;SDS011;5599;52.210;21.046;2024-03-02T03:43:48;30.40;;;24.90;;
11090;SDS011;5599;52.210;21.046;2024-03-02T03:46:17;33.40;;;23.90;;
11090;SDS011;5599;52.210;21.046;2024-03-02T03:48:47;31.07;;;23.47;;
11090;SDS011;5599;52.210;21.046;2024-03-02T03:51:16;29.40;;;23.73;;
11090;SDS011;5599;52.210;21.046;2024-03-02T03:53:45;28.53;;;23.70;;
11090;SDS011;5599;52.210;21.046;2024-03-02T03:56:14;30.70;;;24.67;;
11090;SDS011;5599;52.210;21.046;2024-03-02T03:58:43;29.17;;;24.60;;
11090;SDS011;5599;52.210;21.046;2024-03-02T04:01:11;26.57;;;23.60;;
11090;SDS011;5599;52.210;21.046;2024-03-02T04:03:40;29.47;;;24.30;;
11090;SDS011;5599;52.210;21.046;2024-03-02T04:06:10;28.97;;;23.60;;
11090;SDS011;5599;52.210;21.046;2024-03-02T04:08:41;27.77;;;24.07;;
11090;SDS011;5599;52.210;21.046;2024-03-02T04:11:10;30.70;;;25.23;;
11090;SDS011;5599;52.210;21.046;2024-03-02T04:13:38;33.83;;;24.73;;
11090;SDS011;5599;52.210;21.046;2024-03-02T04:16:07;29.37;;;24.73;;
11090;SDS011;5599;52.210;21.046;2024-03-02T04:18:36;31.87;;;24.67;;
11090;SDS011;5599;52.210;21.046;2024-03-02T04:21:06;32.40;;;25.33;;
11090;SDS011;5599;52.210;21.046;2024-03-02T04:23:36;31.97;;;24.77;;
11090;SDS011;5599;52.210;21.046;2024-03-02T04:26:05;32.73;;;25.40;;
11090;SDS011;5599;52.210;21.046;2024-03-02T04:28:34;34.07;;;26.37;;
11090;SDS011;5599;52.210;21.046;2024-03-02T04:31:03;30.20;;;25.27;;
11090;SDS011;5599;52.210;21.046;2024-03-02T04:33:32;29.73;;;23.97;;
11090;SDS011;5599;52.210;21.046;2024-03-02T04:36:01;31.47;;;24.87;;
11090;SDS011;5599;52.210;21.046;2024-03-02T04:38:30;35.57;;;25.67;;
11090;SDS011;5599;52.210;21.046;2024-03-02T04:41:00;33.10;;;25.47;;
11090;SDS011;5599;52.210;21.046;2024-03-02T04:43:29;35.83;;;27.20;;
11090;SDS011;5599;52.210;21.046;2024-03-02T04:45:58;37.30;;;28.10;;
11090;SDS011;5599;52.210;21.046;2024-03-02T04:48:27;34.40;;;29.43;;
11090;SDS011;5599;52.210;21.046;2024-03-02T04:50:56;35.63;;;27.43;;
11090;SDS011;5599;52.210;21.046;2024-03-02T04:53:25;32.93;;;26.67;;
11090;SDS011;5599;52.210;21.046;2024-03-02T04:55:54;34.60;;;27.33;;
11090;SDS011;5599;52.210;21.046;2024-03-02T04:58:55;34.40;;;26.53;;
11090;SDS011;5599;52.210;21.046;2024-03-02T05:01:24;32.47;;;26.23;;
11090;SDS011;5599;52.210;21.046;2024-03-02T05:03:53;32.37;;;25.83;;
11090;SDS011;5599;52.210;21.046;2024-03-02T05:06:23;32.17;;;24.90;;
11090;SDS011;5599;52.210;21.046;2024-03-02T05:08:52;30.00;;;24.60;;
11090;SDS011;5599;52.210;21.046;2024-03-02T05:11:21;30.47;;;24.50;;
11090;SDS011;5599;52.210;21.046;2024-03-02T05:14:08;30.17;;;24.07;;
11090;SDS011;5599;52.210;21.046;2024-03-02T05:16:37;27.77;;;22.80;;
11090;SDS011;5599;52.210;21.046;2024-03-02T05:19:07;30.13;;;23.27;;
11090;SDS011;5599;52.210;21.046;2024-03-02T05:21:36;32.47;;;25.60;;
11090;SDS011;5599;52.210;21.046;2024-03-02T05:24:05;29.17;;;22.97;;
11090;SDS011;5599;52.210;21.046;2024-03-02T05:26:34;30.73;;;24.10;;
11090;SDS011;5599;52.210;21.046;2024-03-02T05:29:02;31.90;;;24.20;;
11090;SDS011;5599;52.210;21.046;2024-03-02T05:31:33;27.30;;;23.07;;
11090;SDS011;5599;52.210;21.046;2024-03-02T05:34:01;29.10;;;22.23;;
11090;SDS011;5599;52.210;21.046;2024-03-02T05:36:32;28.60;;;23.07;;
11090;SDS011;5599;52.210;21.046;2024-03-02T05:39:01;29.37;;;22.83;;
11090;SDS011;5599;52.210;21.046;2024-03-02T05:41:31;34.00;;;23.07;;
11090;SDS011;5599;52.210;21.046;2024-03-02T05:44:00;31.30;;;24.00;;
11090;SDS011;5599;52.210;21.046;2024-03-02T05:46:29;29.37;;;23.77;;
11090;SDS011;5599;52.210;21.046;2024-03-02T05:49:00;29.37;;;22.97;;
11090;SDS011;5599;52.210;21.046;2024-03-02T05:51:29;33.50;;;24.17;;
11090;SDS011;5599;52.210;21.046;2024-03-02T05:53:58;30.03;;;23.30;;
11090;SDS011;5599;52.210;21.046;2024-03-02T05:56:27;28.07;;;22.93;;
11090;SDS011;5599;52.210;21.046;2024-03-02T05:58:56;26.93;;;23.07;;
11090;SDS011;5599;52.210;21.046;2024-03-02T06:01:35;31.73;;;23.57;;
11090;SDS011;5599;52.210;21.046;2024-03-02T06:04:05;28.93;;;23.13;;
11090;SDS011;5599;52.210;21.046;2024-03-02T06:06:34;29.00;;;23.03;;
11090;SDS011;5599;52.210;21.046;2024-03-02T06:09:03;29.77;;;23.27;;
11090;SDS011;5599;52.210;21.046;2024-03-02T06:11:35;28.83;;;23.80;;
11090;SDS011;5599;52.210;21.046;2024-03-02T06:14:04;28.90;;;22.17;;
11090;SDS011;5599;52.210;21.046;2024-03-02T06:16:33;27.50;;;22.13;;
11090;SDS011;5599;52.210;21.046;2024-03-02T06:19:03;29.10;;;22.23;;
11090;SDS011;5599;52.210;21.046;2024-03-02T06:21:33;25.90;;;21.53;;
11090;SDS011;5599;52.210;21.046;2024-03-02T06:24:02;27.50;;;21.73;;
11090;SDS011;5599;52.210;21.046;2024-03-02T06:26:32;28.57;;;21.63;;
11090;SDS011;5599;52.210;21.046;2024-03-02T06:29:00;29.47;;;22.13;;
11090;SDS011;5599;52.210;21.046;2024-03-02T06:31:29;28.93;;;21.83;;
11090;SDS011;5599;52.210;21.046;2024-03-02T06:33:58;28.53;;;22.10;;
11090;SDS011;5599;52.210;21.046;2024-03-02T06:36:27;26.47;;;21.80;;
11090;SDS011;5599;52.210;21.046;2024-03-02T06:38:57;27.20;;;23.10;;
11090;SDS011;5599;52.210;21.046;2024-03-02T06:41:26;34.30;;;22.27;;
11090;SDS011;5599;52.210;21.046;2024-03-02T06:43:55;26.17;;;22.20;;
11090;SDS011;5599;52.210;21.046;2024-03-02T06:46:27;33.80;;;22.27;;
11090;SDS011;5599;52.210;21.046;2024-03-02T06:48:56;26.50;;;20.83;;
11090;SDS011;5599;52.210;21.046;2024-03-02T06:51:24;30.67;;;21.43;;
11090;SDS011;5599;52.210;21.046;2024-03-02T06:53:53;28.80;;;22.07;;
11090;SDS011;5599;52.210;21.046;2024-03-02T06:56:23;26.13;;;21.37;;
11090;SDS011;5599;52.210;21.046;2024-03-02T06:58:52;26.27;;;21.53;;
11090;SDS011;5599;52.210;21.046;2024-03-02T07:01:21;29.83;;;20.77;;
11090;SDS011;5599;52.210;21.046;2024-03-02T07:03:52;28.83;;;21.70;;
11090;SDS011;5599;52.210;21.046;2024-03-02T07:06:21;26.23;;;19.90;;
11090;SDS011;5599;52.210;21.046;2024-03-02T07:08:50;26.50;;;20.00;;
11090;SDS011;5599;52.210;21.046;2024-03-02T07:11:19;25.10;;;20.43;;
11090;SDS011;5599;52.210;21.046;2024-03-02T07:13:49;29.77;;;21.03;;
11090;SDS011;5599;52.210;21.046;2024-03-02T07:16:18;26.83;;;20.60;;
11090;SDS011;5599;52.210;21.046;2024-03-02T07:18:56;24.93;;;20.23;;
11090;SDS011;5599;52.210;21.046;2024-03-02T07:21:26;25.17;;;21.03;;
11090;SDS011;5599;52.210;21.046;2024-03-02T07:23:55;24.57;;;18.83;;
11090;SDS011;5599;52.210;21.046;2024-03-02T07:26:24;31.57;;;20.80;;
11090;SDS011;5599;52.210;21.046;2024-03-02T07:28:57;26.23;;;19.87;;
11090;SDS011;5599;52.210;21.046;2024-03-02T07:31:26;25.63;;;21.03;;
11090;SDS011;5599;52.210;21.046;2024-03-02T07:33:55;24.70;;;19.33;;
11090;SDS011;5599;52.210;21.046;2024-03-02T07:36:24;27.43;;;21.00;;
11090;SDS011;5599;52.210;21.046;2024-03-02T07:38:53;25.17;;;19.43;;
11090;SDS011;5599;52.210;21.046;2024-03-02T07:41:22;29.03;;;21.60;;
11090;SDS011;5599;52.210;21.046;2024-03-02T07:43:50;29.10;;;22.20;;
11090;SDS011;5599;52.210;21.046;2024-03-02T07:46:21;26.87;;;19.83;;
11090;SDS011;5599;52.210;21.046;2024-03-02T07:48:50;27.73;;;20.80;;
11090;SDS011;5599;52.210;21.046;2024-03-02T07:51:19;26.37;;;19.37;;
11090;SDS011;5599;52.210;21.046;2024-03-02T07:53:48;23.93;;;19.50;;
11090;SDS011;5599;52.210;21.046;2024-03-02T07:56:17;24.20;;;18.87;;
11090;SDS011;5599;52.210;21.046;2024-03-02T07:58:49;26.87;;;20.10;;
11090;SDS011;5599;52.210;21.046;2024-03-02T08:01:18;26.67;;;20.07;;
11090;SDS011;5599;52.210;21.046;2024-03-02T08:03:48;26.80;;;19.60;;
11090;SDS011;5599;52.210;21.046;2024-03-02T08:06:20;24.40;;;19.47;;
11090;SDS011;5599;52.210;21.046;2024-03-02T08:08:49;25.67;;;19.13;;
11090;SDS011;5599;52.210;21.046;2024-03-02T08:11:18;27.10;;;20.07;;
11090;SDS011;5599;52.210;21.046;2024-03-02T08:13:47;26.97;;;19.90;;
11090;SDS011;5599;52.210;21.046;2024-03-02T08:16:16;26.30;;;18.43;;
11090;SDS011;5599;52.210;21.046;2024-03-02T08:18:47;26.10;;;18.50;;
11090;SDS011;5599;52.210;21.046;2024-03-02T08:21:17;28.47;;;20.60;;
11090;SDS011;5599;52.210;21.046;2024-03-02T08:23:47;23.83;;;19.07;;
11090;SDS011;5599;52.210;21.046;2024-03-02T08:26:16;27.47;;;19.83;;
11090;SDS011;5599;52.210;21.046;2024-03-02T08:28:44;27.57;;;19.27;;
11090;SDS011;5599;52.210;21.046;2024-03-02T08:31:13;24.93;;;19.80;;
11090;SDS011;5599;52.210;21.046;2024-03-02T08:33:42;28.80;;;20.00;;
11090;SDS011;5599;52.210;21.046;2024-03-02T08:36:12;24.30;;;18.63;;
11090;SDS011;5599;52.210;21.046;2024-03-02T08:38:42;24.53;;;18.50;;
11090;SDS011;5599;52.210;21.046;2024-03-02T08:41:12;30.50;;;21.13;;
11090;SDS011;5599;52.210;21.046;2024-03-02T08:43:43;24.30;;;19.63;;
11090;SDS011;5599;52.210;21.046;2024-03-02T08:46:12;26.90;;;18.87;;
11090;SDS011;5599;52.210;21.046;2024-03-02T08:48:41;28.57;;;20.60;;
11090;SDS011;5599;52.210;21.046;2024-03-02T08:51:10;25.93;;;20.70;;
11090;SDS011;5599;52.210;21.046;2024-03-02T08:53:41;24.23;;;19.73;;
11090;SDS011;5599;52.210;21.046;2024-03-02T08:56:10;26.33;;;20.07;;
11090;SDS011;5599;52.210;21.046;2024-03-02T08:58:39;29.60;;;20.13;;
11090;SDS011;5599;52.210;21.046;2024-03-02T09:01:08;29.10;;;20.03;;
11090;SDS011;5599;52.210;21.046;2024-03-02T09:03:37;27.30;;;20.97;;
11090;SDS011;5599;52.210;21.046;2024-03-02T09:06:06;26.33;;;20.23;;
11090;SDS011;5599;52.210;21.046;2024-03-02T09:08:37;26.23;;;20.03;;
11090;SDS011;5599;52.210;21.046;2024-03-02T09:11:07;24.73;;;19.63;;
11090;SDS011;5599;52.210;21.046;2024-03-02T09:13:38;26.67;;;19.93;;
11090;SDS011;5599;52.210;21.046;2024-03-02T09:16:07;27.93;;;20.37;;
11090;SDS011;5599;52.210;21.046;2024-03-02T09:18:38;25.70;;;19.63;;
11090;SDS011;5599;52.210;21.046;2024-03-02T09:21:07;26.87;;;19.43;;
11090;SDS011;5599;52.210;21.046;2024-03-02T09:23:37;25.07;;;19.27;;
11090;SDS011;5599;52.210;21.046;2024-03-02T09:26:07;29.87;;;20.10;;
11090;SDS011;5599;52.210;21.046;2024-03-02T09:28:35;29.37;;;19.23;;
11090;SDS011;5599;52.210;21.046;2024-03-02T09:31:04;28.37;;;20.83;;
11090;SDS011;5599;52.210;21.046;2024-03-02T09:33:33;26.10;;;19.67;;
11090;SDS011;5599;52.210;21.046;2024-03-02T09:36:02;27.23;;;20.13;;
11090;SDS011;5599;52.210;21.046;2024-03-02T09:38:32;27.37;;;19.50;;
11090;SDS011;5599;52.210;21.046;2024-03-02T09:41:02;24.20;;;18.57;;
11090;SDS011;5599;52.210;21.046;2024-03-02T09:43:31;26.30;;;19.80;;
11090;SDS011;5599;52.210;21.046;2024-03-02T09:46:00;30.20;;;20.13;;
11090;SDS011;5599;52.210;21.046;2024-03-02T09:48:30;29.03;;;19.67;;
11090;SDS011;5599;52.210;21.046;2024-03-02T09:51:00;29.30;;;20.47;;
11090;SDS011;5599;52.210;21.046;2024-03-02T09:53:31;23.83;;;19.73;;
11090;SDS011;5599;52.210;21.046;2024-03-02T09:56:00;25.47;;;20.77;;
11090;SDS011;5599;52.210;21.046;2024-03-02T09:58:31;28.80;;;20.87;;
11090;SDS011;5599;52.210;21.046;2024-03-02T10:01:00;25.13;;;19.13;;
11090;SDS011;5599;52.210;21.046;2024-03-02T10:03:29;28.10;;;19.27;;
11090;SDS011;5599;52.210;21.046;2024-03-02T10:08:50;26.77;;;20.07;;
11090;SDS011;5599;52.210;21.046;2024-03-02T10:11:29;24.60;;;20.03;;
11090;SDS011;5599;52.210;21.046;2024-03-02T10:14:06;26.63;;;18.87;;
11090;SDS011;5599;52.210;21.046;2024-03-02T10:16:37;27.13;;;19.40;;
11090;SDS011;5599;52.210;21.046;2024-03-02T10:19:16;25.60;;;19.80;;
11090;SDS011;5599;52.210;21.046;2024-03-02T10:21:46;26.73;;;18.97;;
11090;SDS011;5599;52.210;21.046;2024-03-02T10:24:16;26.80;;;20.23;;
11090;SDS011;5599;52.210;21.046;2024-03-02T10:26:46;24.33;;;19.97;;
11090;SDS011;5599;52.210;21.046;2024-03-02T10:29:16;29.50;;;20.10;;
11090;SDS011;5599;52.210;21.046;2024-03-02T10:31:45;27.77;;;20.20;;
11090;SDS011;5599;52.210;21.046;2024-03-02T10:34:14;25.23;;;20.17;;
11090;SDS011;5599;52.210;21.046;2024-03-02T10:36:44;25.27;;;20.47;;
11090;SDS011;5599;52.210;21.046;2024-03-02T10:39:14;28.03;;;20.37;;
11090;SDS011;5599;52.210;21.046;2024-03-02T10:41:43;28.87;;;19.00;;
11090;SDS011;5599;52.210;21.046;2024-03-02T10:44:15;25.33;;;19.07;;
11090;SDS011;5599;52.210;21.046;2024-03-02T10:46:45;26.67;;;19.43;;
11090;SDS011;5599;52.210;21.046;2024-03-02T10:49:15;26.77;;;20.10;;
11090;SDS011;5599;52.210;21.046;2024-03-02T10:51:45;26.00;;;20.10;;
11090;SDS011;5599;52.210;21.046;2024-03-02T10:54:14;28.30;;;19.93;;
11090;SDS011;5599;52.210;21.046;2024-03-02T10:56:44;28.23;;;19.70;;
11090;SDS011;5599;52.210;21.046;2024-03-02T10:59:21;23.53;;;19.53;;
11090;SDS011;5599;52.210;21.046;2024-03-02T11:02:02;25.27;;;19.97;;
11090;SDS011;5599;52.210;21.046;2024-03-02T11:04:34;25.40;;;19.73;;
11090;SDS011;5599;52.210;21.046;2024-03-02T11:07:04;26.37;;;18.90;;
11090;SDS011;5599;52.210;21.046;2024-03-02T11:09:35;25.87;;;21.07;;
11090;SDS011;5599;52.210;21.046;2024-03-02T11:12:09;25.83;;;20.57;;
11090;SDS011;5599;52.210;21.046;2024-03-02T11:14:42;31.10;;;23.07;;
11090;SDS011;5599;52.210;21.046;2024-03-02T11:17:11;25.43;;;21.70;;
11090;SDS011;5599;52.210;21.046;2024-03-02T11:19:43;25.90;;;20.33;;
11090;SDS011;5599;52.210;21.046;2024-03-02T11:22:13;28.33;;;22.10;;
11090;SDS011;5599;52.210;21.046;2024-03-02T11:24:47;26.83;;;22.53;;
11090;SDS011;5599;52.210;21.046;2024-03-02T11:27:58;29.57;;;22.77;;
11090;SDS011;5599;52.210;21.046;2024-03-02T11:33:24;32.87;;;24.60;;
11090;SDS011;5599;52.210;21.046;2024-03-02T11:35:56;33.50;;;24.43;;
11090;SDS011;5599;52.210;21.046;2024-03-02T11:38:29;34.27;;;26.00;;
11090;SDS011;5599;52.210;21.046;2024-03-02T11:41:00;31.13;;;26.03;;
11090;SDS011;5599;52.210;21.046;2024-03-02T11:43:30;35.37;;;26.93;;
11090;SDS011;5599;52.210;21.046;2024-03-02T11:46:03;32.23;;;27.63;;
11090;SDS011;5599;52.210;21.046;2024-03-02T11:48:35;34.63;;;27.83;;
11090;SDS011;5599;52.210;21.046;2024-03-02T11:51:05;38.17;;;29.87;;
11090;SDS011;5599;52.210;21.046;2024-03-02T11:53:34;36.27;;;27.87;;
11090;SDS011;5599;52.210;21.046;2024-03-02T11:56:06;37.13;;;29.27;;
11090;SDS011;5599;52.210;21.046;2024-03-02T11:58:39;36.47;;;29.27;;
11090;SDS011;5599;52.210;21.046;2024-03-02T12:01:11;36.67;;;28.77;;
11090;SDS011;5599;52.210;21.046;2024-03-02T12:03:41;34.73;;;28.67;;
11090;SDS011;5599;52.210;21.046;2024-03-02T12:06:11;34.97;;;29.07;;
11090;SDS011;5599;52.210;21.046;2024-03-02T12:08:41;36.67;;;28.37;;
11090;SDS011;5599;52.210;21.046;2024-03-02T12:11:12;35.17;;;27.60;;
11090;SDS011;5599;52.210;21.046;2024-03-02T12:13:51;35.70;;;29.20;;
11090;SDS011;5599;52.210;21.046;2024-03-02T12:16:26;33.17;;;27.73;;
11090;SDS011;5599;52.210;21.046;2024-03-02T12:18:54;32.23;;;27.57;;
11090;SDS011;5599;52.210;21.046;2024-03-02T12:21:24;32.77;;;27.97;;
11090;SDS011;5599;52.210;21.046;2024-03-02T12:23:53;32.67;;;26.40;;
11090;SDS011;5599;52.210;21.046;2024-03-02T12:26:22;32.33;;;26.20;;
11090;SDS011;5599;52.210;21.046;2024-03-02T12:28:51;29.73;;;26.03;;
11090;SDS011;5599;52.210;21.046;2024-03-02T12:31:21;34.70;;;27.67;;
11090;SDS011;5599;52.210;21.046;2024-03-02T12:33:51;33.13;;;29.50;;
11090;SDS011;5599;52.210;21.046;2024-03-02T12:36:20;34.03;;;28.57;;
11090;SDS011;5599;52.210;21.046;2024-03-02T12:38:52;36.30;;;27.63;;
11090;SDS011;5599;52.210;21.046;2024-03-02T12:41:21;34.93;;;27.47;;
11090;SDS011;5599;52.210;21.046;2024-03-02T12:43:51;29.30;;;25.93;;
11090;SDS011;5599;52.210;21.046;2024-03-02T12:46:20;30.13;;;25.97;;
11090;SDS011;5599;52.210;21.046;2024-03-02T12:48:51;29.10;;;26.00;;
11090;SDS011;5599;52.210;21.046;2024-03-02T12:51:20;31.67;;;26.20;;
11090;SDS011;5599;52.210;21.046;2024-03-02T12:53:52;30.87;;;26.03;;
11090;SDS011;5599;52.210;21.046;2024-03-02T12:56:22;32.27;;;27.37;;
11090;SDS011;5599;52.210;21.046;2024-03-02T12:58:53;32.40;;;26.67;;
11090;SDS011;5599;52.210;21.046;2024-03-02T13:01:22;29.43;;;26.30;;
11090;SDS011;5599;52.210;21.046;2024-03-02T13:03:52;29.70;;;25.87;;
11090;SDS011;5599;52.210;21.046;2024-03-02T13:06:23;31.30;;;25.87;;
11090;SDS011;5599;52.210;21.046;2024-03-02T13:08:54;30.40;;;26.67;;
11090;SDS011;5599;52.210;21.046;2024-03-02T13:11:23;31.10;;;27.73;;
11090;SDS011;5599;52.210;21.046;2024-03-02T13:13:53;32.80;;;29.13;;
11090;SDS011;5599;52.210;21.046;2024-03-02T13:16:22;30.13;;;26.93;;
11090;SDS011;5599;52.210;21.046;2024-03-02T13:19:00;33.63;;;27.57;;
11090;SDS011;5599;52.210;21.046;2024-03-02T13:21:29;33.00;;;27.30;;
11090;SDS011;5599;52.210;21.046;2024-03-02T13:23:58;32.37;;;26.43;;
11090;SDS011;5599;52.210;21.046;2024-03-02T13:26:28;35.40;;;28.57;;
11090;SDS011;5599;52.210;21.046;2024-03-02T13:28:56;33.70;;;28.57;;
11090;SDS011;5599;52.210;21.046;2024-03-02T13:31:25;30.47;;;26.17;;
11090;SDS011;5599;52.210;21.046;2024-03-02T13:33:54;34.87;;;28.97;;
11090;SDS011;5599;52.210;21.046;2024-03-02T13:36:25;31.93;;;28.53;;
11090;SDS011;5599;52.210;21.046;2024-03-02T13:38:54;32.70;;;25.93;;
11090;SDS011;5599;52.210;21.046;2024-03-02T13:41:25;30.87;;;27.53;;
11090;SDS011;5599;52.210;21.046;2024-03-02T13:43:54;32.77;;;27.70;;
11090;SDS011;5599;52.210;21.046;2024-03-02T13:46:22;34.23;;;27.83;;
11090;SDS011;5599;52.210;21.046;2024-03-02T13:48:51;35.53;;;28.53;;
11090;SDS011;5599;52.210;21.046;2024-03-02T13:51:25;30.87;;;27.50;;
11090;SDS011;5599;52.210;21.046;2024-03-02T13:53:54;33.77;;;28.23;;
11090;SDS011;5599;52.210;21.046;2024-03-02T13:56:23;37.57;;;29.83;;
11090;SDS011;5599;52.210;21.046;2024-03-02T13:58:52;34.50;;;29.10;;
11090;SDS011;5599;52.210;21.046;2024-03-02T14:01:21;39.13;;;29.10;;
11090;SDS011;5599;52.210;21.046;2024-03-02T14:03:50;34.43;;;30.17;;
11090;SDS011;5599;52.210;21.046;2024-03-02T14:06:21;33.67;;;29.07;;
11090;SDS011;5599;52.210;21.046;2024-03-02T14:08:52;34.80;;;30.13;;
11090;SDS011;5599;52.210;21.046;2024-03-02T14:11:21;35.27;;;27.43;;
11090;SDS011;5599;52.210;21.046;2024-03-02T14:13:50;33.90;;;28.87;;
11090;SDS011;5599;52.210;21.046;2024-03-02T14:16:21;32.40;;;28.57;;
11090;SDS011;5599;52.210;21.046;2024-03-02T14:18:50;33.17;;;27.80;;
11090;SDS011;5599;52.210;21.046;2024-03-02T14:21:19;34.37;;;28.87;;
11090;SDS011;5599;52.210;21.046;2024-03-02T14:23:48;32.83;;;29.27;;
11090;SDS011;5599;52.210;21.046;2024-03-02T14:26:18;34.47;;;27.50;;
11090;SDS011;5599;52.210;21.046;2024-03-02T14:28:47;34.27;;;27.93;;
11090;SDS011;5599;52.210;21.046;2024-03-02T14:31:18;35.70;;;27.43;;
11090;SDS011;5599;52.210;21.046;2024-03-02T14:33:47;35.97;;;27.50;;
11090;SDS011;5599;52.210;21.046;2024-03-02T14:36:16;39.10;;;29.47;;
11090;SDS011;5599;52.210;21.046;2024-03-02T14:38:45;31.63;;;27.40;;
11090;SDS011;5599;52.210;21.046;2024-03-02T14:41:15;35.20;;;28.30;;
11090;SDS011;5599;52.210;21.046;2024-03-02T14:43:45;34.93;;;28.30;;